createdAt,value
2023-02-12T00:01:24.757Z,100.00
2023-02-12T00:03:52.606Z,100.00
2023-02-12T00:06:20.356Z,100.00
2023-02-12T00:08:52.888Z,100.00
2023-02-12T00:11:23.390Z,100.00
2023-02-12T00:13:51.272Z,100.00
2023-02-12T00:16:22.123Z,100.00
2023-02-12T00:18:52.526Z,100.00
2023-02-12T00:21:21.310Z,100.00
2023-02-12T00:23:48.925Z,100.00
2023-02-12T00:26:18.856Z,100.00
2023-02-12T00:28:49.780Z,100.00
2023-02-12T00:31:21.392Z,100.00
2023-02-12T00:33:49.052Z,100.00
2023-02-12T00:36:19.923Z,100.00
2023-02-12T00:38:47.993Z,100.00
2023-02-12T00:41:15.995Z,100.00
2023-02-12T00:43:43.254Z,100.00
2023-02-12T00:46:11.317Z,100.00
2023-02-12T00:48:38.700Z,100.00
2023-02-12T00:51:06.801Z,100.00
2023-02-12T00:53:34.209Z,100.00
2023-02-12T00:56:02.176Z,100.00
2023-02-12T00:58:29.750Z,100.00
2023-02-12T01:00:57.325Z,100.00
2023-02-12T01:03:24.820Z,100.00
2023-02-12T01:05:54.015Z,100.00
2023-02-12T01:08:22.160Z,100.00
2023-02-12T01:10:59.923Z,100.00
2023-02-12T01:13:30.549Z,100.00
2023-02-12T01:16:08.285Z,100.00
2023-02-12T01:18:37.156Z,100.00
2023-02-12T01:21:16.330Z,100.00
2023-02-12T01:23:45.129Z,100.00
2023-02-12T01:26:13.867Z,100.00
2023-02-12T01:28:42.876Z,100.00
2023-02-12T01:31:16.156Z,100.00
2023-02-12T01:33:43.656Z,100.00
2023-02-12T01:36:12.011Z,100.00
2023-02-12T01:38:39.263Z,100.00
2023-02-12T01:41:12.830Z,100.00
2023-02-12T01:43:40.692Z,100.00
2023-02-12T01:46:10.606Z,100.00
2023-02-12T01:48:40.774Z,100.00
2023-02-12T01:51:11.580Z,100.00
2023-02-12T01:53:44.478Z,100.00
2023-02-12T01:56:12.108Z,100.00
2023-02-12T01:58:42.077Z,100.00
2023-02-12T02:01:19.100Z,100.00
2023-02-12T02:03:48.656Z,100.00
2023-02-12T02:06:29.325Z,100.00
2023-02-12T02:08:57.090Z,100.00
2023-02-12T02:11:43.366Z,100.00
2023-02-12T02:14:29.505Z,100.00
2023-02-12T02:17:28.495Z,100.00
2023-02-12T02:20:17.294Z,100.00
2023-02-12T02:22:50.994Z,100.00
2023-02-12T02:25:49.255Z,100.00
2023-02-12T02:28:54.266Z,100.00
2023-02-12T02:31:55.025Z,100.00
2023-02-12T02:35:00.381Z,100.00
2023-02-12T02:37:33.007Z,100.00
2023-02-12T02:40:15.328Z,100.00
2023-02-12T02:42:46.537Z,100.00
2023-02-12T02:45:22.996Z,100.00
2023-02-12T02:47:58.647Z,100.00
2023-02-12T02:50:28.974Z,100.00
2023-02-12T02:53:05.779Z,100.00
2023-02-12T02:55:38.975Z,100.00
2023-02-12T02:58:21.744Z,100.00
2023-02-12T03:00:59.717Z,100.00
2023-02-12T03:03:37.212Z,100.00
2023-02-12T03:06:09.687Z,100.00
2023-02-12T03:08:42.393Z,100.00
2023-02-12T03:11:15.775Z,100.00
2023-02-12T03:13:47.648Z,100.00
2023-02-12T03:17:06.312Z,100.00
2023-02-12T03:19:51.427Z,100.00
2023-02-12T03:22:23.247Z,100.00
2023-02-12T03:24:54.767Z,100.00
2023-02-12T03:27:48.815Z,100.00
2023-02-12T03:30:16.378Z,100.00
2023-02-12T03:32:44.114Z,100.00
2023-02-12T03:35:34.822Z,100.00
2023-02-12T03:38:24.023Z,100.00
2023-02-12T03:40:54.842Z,100.00
2023-02-12T03:43:44.468Z,100.00
2023-02-12T03:46:19.430Z,100.00
2023-02-12T03:48:59.645Z,100.00
2023-02-12T03:51:36.009Z,100.00
2023-02-12T03:54:05.205Z,100.00
2023-02-12T03:56:36.937Z,100.00
2023-02-12T03:59:05.820Z,100.00
2023-02-12T04:01:34.777Z,100.00
2023-02-12T04:04:04.763Z,100.00
2023-02-12T04:06:32.236Z,100.00
2023-02-12T04:09:03.908Z,100.00
2023-02-12T04:11:57.397Z,100.00
2023-02-12T04:14:43.932Z,100.00
2023-02-12T04:17:40.701Z,100.00
2023-02-12T04:20:30.098Z,100.00
2023-02-12T04:23:13.968Z,100.00
2023-02-12T04:25:57.942Z,100.00
2023-02-12T04:28:44.092Z,100.00
2023-02-12T04:31:32.357Z,100.00
2023-02-12T04:34:31.428Z,100.00
2023-02-12T04:37:18.710Z,100.00
2023-02-12T04:39:46.595Z,100.00
2023-02-12T04:42:14.342Z,100.00
2023-02-12T04:44:43.471Z,100.00
2023-02-12T04:47:15.307Z,100.00
2023-02-12T04:49:43.057Z,100.00
2023-02-12T04:52:10.693Z,100.00
2023-02-12T04:54:38.201Z,100.00
2023-02-12T04:57:06.880Z,100.00
2023-02-12T04:59:34.572Z,100.00
2023-02-12T05:02:02.535Z,100.00
2023-02-12T05:04:29.794Z,100.00
2023-02-12T05:06:57.293Z,100.00
2023-02-12T05:09:24.506Z,100.00
2023-02-12T05:11:52.219Z,100.00
2023-02-12T05:14:19.580Z,100.00
2023-02-12T05:16:47.219Z,100.00
2023-02-12T05:19:14.449Z,100.00
2023-02-12T05:21:42.003Z,100.00
2023-02-12T05:24:09.636Z,100.00
2023-02-12T05:26:37.425Z,100.00
2023-02-12T05:29:04.800Z,100.00
2023-02-12T05:31:32.903Z,100.00
2023-02-12T05:34:00.165Z,100.00
2023-02-12T05:36:27.905Z,100.00
2023-02-12T05:38:59.299Z,100.00
2023-02-12T05:41:27.237Z,100.00
2023-02-12T05:43:54.792Z,100.00
2023-02-12T05:46:22.990Z,100.00
2023-02-12T05:48:50.384Z,100.00
2023-02-12T05:51:25.405Z,100.00
2023-02-12T05:53:57.302Z,100.00
2023-02-12T05:56:26.984Z,100.00
2023-02-12T05:58:56.980Z,100.00
2023-02-12T06:01:30.652Z,100.00
2023-02-12T06:03:59.533Z,100.00
2023-02-12T06:06:27.988Z,100.00
2023-02-12T06:08:56.100Z,100.00
2023-02-12T06:11:23.932Z,100.00
2023-02-12T06:13:51.927Z,100.00
2023-02-12T06:16:25.356Z,100.00
2023-02-12T06:18:54.428Z,100.00
2023-02-12T06:21:23.561Z,100.00
2023-02-12T06:23:50.979Z,100.00
2023-02-12T06:26:19.276Z,100.00
2023-02-12T06:28:46.775Z,100.00
2023-02-12T06:31:35.237Z,100.00
2023-02-12T06:34:06.081Z,100.00
2023-02-12T06:36:34.166Z,100.00
2023-02-12T06:39:03.039Z,100.00
2023-02-12T06:41:30.977Z,100.00
2023-02-12T06:43:58.287Z,100.00
2023-02-12T06:46:26.480Z,100.00
2023-02-12T06:48:59.700Z,100.00
2023-02-12T06:51:29.118Z,100.00
2023-02-12T06:53:56.724Z,100.00
2023-02-12T06:56:25.546Z,100.00
2023-02-12T06:58:55.911Z,100.00
2023-02-12T07:01:26.447Z,100.00
2023-02-12T07:03:56.771Z,100.00
2023-02-12T07:06:26.105Z,100.00
2023-02-12T07:08:54.961Z,100.00
2023-02-12T07:11:30.601Z,100.00
2023-02-12T07:13:58.340Z,100.00
2023-02-12T07:16:26.855Z,100.00
2023-02-12T07:18:54.543Z,100.00
2023-02-12T07:21:22.068Z,100.00
2023-02-12T07:23:51.729Z,100.00
2023-02-12T07:26:20.990Z,100.00
2023-02-12T07:28:49.009Z,100.00
2023-02-12T07:31:22.073Z,100.00
2023-02-12T07:33:50.261Z,100.00
2023-02-12T07:36:19.223Z,100.00
2023-02-12T07:38:47.123Z,100.00
2023-02-12T07:41:23.463Z,100.00
2023-02-12T07:43:58.201Z,100.00
2023-02-12T07:46:31.436Z,100.00
2023-02-12T07:49:00.475Z,100.00
2023-02-12T07:51:28.451Z,100.00
2023-02-12T07:53:56.260Z,100.00
2023-02-12T07:56:26.083Z,100.00
2023-02-12T07:58:54.208Z,100.00
2023-02-12T08:01:24.081Z,99.76
2023-02-12T08:03:51.782Z,97.76
2023-02-12T08:06:27.769Z,97.94
2023-02-12T08:08:57.815Z,96.51
2023-02-12T08:11:26.614Z,95.53
2023-02-12T08:13:54.258Z,94.32
2023-02-12T08:16:23.919Z,96.45
2023-02-12T08:18:52.002Z,94.82
2023-02-12T08:21:25.777Z,93.80
2023-02-12T08:23:57.330Z,93.51
2023-02-12T08:26:30.084Z,93.79
2023-02-12T08:29:04.703Z,93.85
2023-02-12T08:31:39.113Z,93.16
2023-02-12T08:34:06.677Z,91.01
2023-02-12T08:36:39.057Z,92.11
2023-02-12T08:39:08.372Z,92.22
2023-02-12T08:41:36.455Z,88.35
2023-02-12T08:44:05.376Z,88.10
2023-02-12T08:46:38.715Z,89.62
2023-02-12T08:49:07.500Z,87.97
2023-02-12T08:51:38.718Z,89.33
2023-02-12T08:54:09.811Z,90.43
2023-02-12T08:56:37.559Z,90.67
2023-02-12T08:59:06.330Z,89.17
2023-02-12T09:01:35.942Z,84.27
2023-02-12T09:04:03.212Z,84.00
2023-02-12T09:06:32.454Z,81.79
2023-02-12T09:08:59.641Z,82.88
2023-02-12T09:11:32.148Z,84.25
2023-02-12T09:14:01.709Z,84.92
2023-02-12T09:16:30.893Z,79.90
2023-02-12T09:18:58.633Z,79.55
2023-02-12T09:21:26.902Z,80.74
2023-02-12T09:23:54.241Z,76.75
2023-02-12T09:26:23.769Z,77.29
2023-02-12T09:28:51.535Z,78.94
2023-02-12T09:31:29.262Z,73.11
2023-02-12T09:34:05.611Z,74.92
2023-02-12T09:36:33.798Z,73.65
2023-02-12T09:39:01.047Z,68.77
2023-02-12T09:41:53.617Z,69.71
2023-02-12T09:44:33.168Z,65.46
2023-02-12T09:47:04.454Z,62.67
2023-02-12T09:49:50.917Z,63.90
2023-02-12T09:52:22.508Z,63.09
2023-02-12T09:54:51.077Z,65.45
2023-02-12T09:57:24.430Z,64.42
2023-02-12T09:59:55.089Z,65.74
2023-02-12T10:02:23.325Z,66.34
2023-02-12T10:05:01.131Z,69.19
2023-02-12T10:08:03.826Z,77.42
2023-02-12T10:11:07.000Z,76.23
2023-02-12T10:13:54.101Z,84.27
2023-02-12T10:16:30.547Z,84.57
2023-02-12T10:18:58.293Z,80.54
2023-02-12T10:21:47.380Z,85.77
2023-02-12T10:24:40.037Z,80.80
2023-02-12T10:27:16.375Z,86.87
2023-02-12T10:29:46.521Z,86.47
2023-02-12T10:32:26.445Z,84.45
2023-02-12T10:34:54.411Z,83.02
2023-02-12T10:37:32.641Z,80.38
2023-02-12T10:40:05.701Z,86.12
2023-02-12T10:42:39.353Z,84.74
2023-02-12T10:45:14.177Z,84.91
2023-02-12T10:47:41.612Z,82.34
2023-02-12T10:50:20.596Z,87.74
2023-02-12T10:52:57.139Z,83.30
2023-02-12T10:55:35.236Z,82.49
2023-02-12T10:58:04.344Z,81.59
2023-02-12T11:00:37.025Z,82.30
2023-02-12T11:03:07.556Z,82.52
2023-02-12T11:05:36.646Z,83.04
2023-02-12T11:08:04.265Z,84.86
2023-02-12T11:10:40.424Z,86.74
2023-02-12T11:13:27.471Z,84.69
2023-02-12T11:15:55.814Z,83.90
2023-02-12T11:18:29.240Z,82.90
2023-02-12T11:21:11.027Z,82.87
2023-02-12T11:23:41.047Z,83.43
2023-02-12T11:26:20.871Z,88.00
2023-02-12T11:29:01.173Z,87.71
2023-02-12T11:31:33.927Z,87.10
2023-02-12T11:34:19.020Z,89.83
2023-02-12T11:36:49.790Z,85.45
2023-02-12T11:39:36.492Z,87.91
2023-02-12T11:42:14.855Z,86.47
2023-02-12T11:44:48.613Z,87.83
2023-02-12T11:47:22.263Z,87.70
2023-02-12T11:49:56.255Z,87.87
2023-02-12T11:52:27.122Z,90.41
2023-02-12T11:54:59.123Z,91.08
2023-02-12T11:57:48.253Z,87.41
2023-02-12T12:00:36.315Z,90.12
2023-02-12T12:03:30.158Z,87.61
2023-02-12T12:06:16.270Z,87.00
2023-02-12T12:08:49.235Z,88.45
2023-02-12T12:11:23.871Z,87.89
2023-02-12T12:14:00.306Z,87.17
2023-02-12T12:17:19.102Z,88.56
2023-02-12T12:19:57.395Z,85.47
2023-02-12T12:22:51.792Z,83.70
2023-02-12T12:25:31.231Z,85.82
2023-02-12T12:28:29.190Z,83.40
2023-02-12T12:30:56.975Z,82.82
2023-02-12T12:33:38.046Z,84.94
2023-02-12T12:36:14.924Z,86.28
2023-02-12T12:39:03.812Z,86.97
2023-02-12T12:41:37.315Z,87.39
2023-02-12T12:44:26.137Z,86.13
2023-02-12T12:47:31.402Z,88.13
2023-02-12T12:50:24.218Z,88.83
2023-02-12T12:52:51.866Z,87.17
2023-02-12T12:55:27.978Z,87.75
2023-02-12T12:58:21.801Z,87.85
2023-02-12T13:01:20.490Z,87.28
2023-02-12T13:04:26.269Z,86.71
2023-02-12T13:06:57.586Z,85.48
2023-02-12T13:09:25.173Z,85.44
2023-02-12T13:11:58.542Z,87.59
2023-02-12T13:14:51.079Z,88.17
2023-02-12T13:18:02.476Z,89.76
2023-02-12T13:20:46.077Z,90.50
2023-02-12T13:23:22.518Z,90.12
2023-02-12T13:26:01.972Z,92.04
2023-02-12T13:28:39.465Z,91.39
2023-02-12T13:31:33.381Z,93.26
2023-02-12T13:34:05.052Z,93.20
2023-02-12T13:36:33.734Z,92.77
2023-02-12T13:39:22.846Z,92.05
2023-02-12T13:42:09.401Z,95.00
2023-02-12T13:44:51.578Z,94.50
2023-02-12T13:47:37.786Z,94.79
2023-02-12T13:50:26.575Z,96.47
2023-02-12T13:53:00.344Z,95.83
2023-02-12T13:55:38.784Z,95.10
2023-02-12T13:58:40.303Z,96.49
2023-02-12T14:01:11.437Z,96.45
2023-02-12T14:03:39.503Z,97.37
2023-02-12T14:06:21.229Z,94.91
2023-02-12T14:08:52.962Z,95.55
2023-02-12T14:11:23.035Z,95.99
2023-02-12T14:14:05.045Z,96.57
2023-02-12T14:16:32.216Z,98.09
2023-02-12T14:19:37.767Z,98.13
2023-02-12T14:22:26.848Z,98.26
2023-02-12T14:24:58.916Z,99.53
2023-02-12T14:27:52.516Z,99.85
2023-02-12T14:30:26.119Z,100.00
2023-02-12T14:32:58.252Z,100.00
2023-02-12T14:35:40.582Z,100.00
2023-02-12T14:38:18.256Z,100.00
2023-02-12T14:40:50.603Z,100.00
2023-02-12T14:44:02.003Z,100.00
2023-02-12T14:46:29.824Z,100.00
2023-02-12T14:49:01.005Z,100.00
2023-02-12T14:51:51.802Z,100.00
2023-02-12T14:54:29.356Z,100.00
2023-02-12T14:57:01.651Z,100.00
2023-02-12T14:59:32.878Z,100.00
2023-02-12T15:02:01.959Z,100.00
2023-02-12T15:04:32.764Z,100.00
2023-02-12T15:07:20.738Z,100.00
2023-02-12T15:09:52.803Z,100.00
2023-02-12T15:12:26.811Z,100.00
2023-02-12T15:15:06.805Z,100.00
2023-02-12T15:17:39.413Z,100.00
2023-02-12T15:20:32.510Z,100.00
2023-02-12T15:23:00.113Z,100.00
2023-02-12T15:25:29.551Z,100.00
2023-02-12T15:28:05.219Z,100.00
2023-02-12T15:30:35.043Z,100.00
2023-02-12T15:33:07.126Z,100.00
2023-02-12T15:35:40.362Z,100.00
2023-02-12T15:38:10.835Z,100.00
2023-02-12T15:40:38.129Z,100.00
2023-02-12T15:43:07.260Z,100.00
2023-02-12T15:45:36.683Z,100.00
2023-02-12T15:48:12.673Z,100.00
2023-02-12T15:50:50.299Z,100.00
2023-02-12T15:53:18.426Z,100.00
2023-02-12T15:55:47.380Z,100.00
2023-02-12T15:58:39.265Z,100.00
2023-02-12T16:01:07.177Z,100.00
2023-02-12T16:03:37.294Z,100.00
2023-02-12T16:06:11.703Z,100.00
2023-02-12T16:08:40.738Z,100.00
2023-02-12T16:11:15.107Z,100.00
2023-02-12T16:13:49.385Z,100.00
2023-02-12T16:16:29.243Z,100.00
2023-02-12T16:19:05.795Z,100.00
2023-02-12T16:21:35.260Z,100.00
2023-02-12T16:24:03.579Z,100.00
2023-02-12T16:26:30.924Z,100.00
2023-02-12T16:28:58.969Z,100.00
2023-02-12T16:31:28.101Z,100.00
2023-02-12T16:33:59.390Z,100.00
2023-02-12T16:36:32.076Z,100.00
2023-02-12T16:39:02.803Z,100.00
2023-02-12T16:41:35.635Z,100.00
2023-02-12T16:44:03.325Z,100.00
2023-02-12T16:46:33.517Z,100.00
2023-02-12T16:49:02.676Z,100.00
2023-02-12T16:51:35.189Z,100.00
2023-02-12T16:54:05.301Z,100.00
2023-02-12T16:56:38.094Z,100.00
2023-02-12T16:59:05.871Z,100.00
2023-02-12T17:01:36.466Z,100.00
2023-02-12T17:04:12.355Z,100.00
2023-02-12T17:06:39.774Z,100.00
2023-02-12T17:09:07.424Z,100.00
2023-02-12T17:11:36.703Z,100.00
2023-02-12T17:14:04.754Z,100.00
2023-02-12T17:16:32.635Z,100.00
2023-02-12T17:19:01.301Z,100.00
2023-02-12T17:21:38.170Z,100.00
2023-02-12T17:24:22.050Z,100.00
2023-02-12T17:26:51.131Z,100.00
2023-02-12T17:29:20.354Z,100.00
2023-02-12T17:31:48.355Z,100.00
2023-02-12T17:34:16.852Z,100.00
2023-02-12T17:36:44.657Z,100.00
2023-02-12T17:39:14.304Z,100.00
2023-02-12T17:41:42.292Z,100.00
2023-02-12T17:44:12.126Z,100.00
2023-02-12T17:46:39.723Z,100.00
2023-02-12T17:49:07.426Z,100.00
2023-02-12T17:51:35.287Z,100.00
2023-02-12T17:54:03.587Z,100.00
2023-02-12T17:56:31.248Z,100.00
2023-02-12T17:58:59.004Z,100.00
2023-02-12T18:01:26.610Z,100.00
2023-02-12T18:03:57.098Z,100.00
2023-02-12T18:06:26.935Z,100.00
2023-02-12T18:08:56.885Z,100.00
2023-02-12T18:11:24.780Z,100.00
2023-02-12T18:13:54.194Z,100.00
2023-02-12T18:16:22.476Z,100.00
2023-02-12T18:18:51.135Z,100.00
2023-02-12T18:21:18.741Z,100.00
2023-02-12T18:23:46.449Z,100.00
2023-02-12T18:26:16.592Z,100.00
2023-02-12T18:28:44.542Z,100.00
2023-02-12T18:31:12.672Z,100.00
2023-02-12T18:33:40.650Z,100.00
2023-02-12T18:36:11.821Z,100.00
2023-02-12T18:38:40.822Z,100.00
2023-02-12T18:41:13.182Z,100.00
2023-02-12T18:43:42.505Z,100.00
2023-02-12T18:46:14.911Z,100.00
2023-02-12T18:48:43.056Z,100.00
2023-02-12T18:51:13.545Z,100.00
2023-02-12T18:53:41.360Z,100.00
2023-02-12T18:56:10.516Z,100.00
2023-02-12T18:58:38.541Z,100.00
2023-02-12T19:01:20.032Z,100.00
2023-02-12T19:03:51.099Z,100.00
2023-02-12T19:06:18.524Z,100.00
2023-02-12T19:08:46.266Z,100.00
2023-02-12T19:11:15.711Z,100.00
2023-02-12T19:13:43.608Z,100.00
2023-02-12T19:16:13.722Z,100.00
2023-02-12T19:18:41.833Z,100.00
2023-02-12T19:21:11.616Z,100.00
2023-02-12T19:23:39.523Z,100.00
2023-02-12T19:26:11.667Z,100.00
2023-02-12T19:28:39.686Z,100.00
2023-02-12T19:31:34.854Z,100.00
2023-02-12T19:34:09.653Z,100.00
2023-02-12T19:36:37.445Z,100.00
2023-02-12T19:39:06.162Z,100.00
2023-02-12T19:41:41.099Z,100.00
2023-02-12T19:44:15.606Z,100.00
2023-02-12T19:46:44.215Z,100.00
2023-02-12T19:49:18.504Z,100.00
2023-02-12T19:51:46.554Z,100.00
2023-02-12T19:54:15.639Z,100.00
2023-02-12T19:56:43.718Z,100.00
2023-02-12T19:59:14.686Z,100.00
2023-02-12T20:01:42.126Z,100.00
2023-02-12T20:04:15.207Z,100.00
2023-02-12T20:06:43.629Z,100.00
2023-02-12T20:09:12.168Z,100.00
2023-02-12T20:11:40.069Z,100.00
2023-02-12T20:14:10.399Z,100.00
2023-02-12T20:16:39.308Z,100.00
2023-02-12T20:19:10.011Z,100.00
2023-02-12T20:21:37.428Z,100.00
2023-02-12T20:24:05.304Z,100.00
2023-02-12T20:26:33.616Z,100.00
2023-02-12T20:29:04.815Z,100.00
2023-02-12T20:31:36.096Z,100.00
2023-02-12T20:34:07.160Z,100.00
2023-02-12T20:36:37.588Z,100.00
2023-02-12T20:39:08.502Z,100.00
2023-02-12T20:41:37.461Z,100.00
2023-02-12T20:44:07.099Z,100.00
2023-02-12T20:46:39.711Z,100.00
2023-02-12T20:49:07.522Z,100.00
2023-02-12T20:51:35.321Z,100.00
2023-02-12T20:54:03.591Z,100.00
2023-02-12T20:56:34.028Z,100.00
2023-02-12T20:59:02.809Z,100.00
2023-02-12T21:01:38.104Z,100.00
2023-02-12T21:04:08.370Z,100.00
2023-02-12T21:06:36.616Z,100.00
2023-02-12T21:09:04.493Z,100.00
2023-02-12T21:11:31.962Z,100.00
2023-02-12T21:14:18.467Z,100.00
2023-02-12T21:16:47.518Z,100.00
2023-02-12T21:19:15.817Z,100.00
2023-02-12T21:21:45.452Z,100.00
2023-02-12T21:24:18.977Z,100.00
2023-02-12T21:26:46.203Z,100.00
2023-02-12T21:29:14.409Z,100.00
2023-02-12T21:31:45.455Z,100.00
2023-02-12T21:34:18.522Z,100.00
2023-02-12T21:36:46.910Z,100.00
2023-02-12T21:39:25.129Z,100.00
2023-02-12T21:42:02.560Z,100.00
2023-02-12T21:44:32.233Z,100.00
2023-02-12T21:46:59.766Z,100.00
2023-02-12T21:49:30.198Z,100.00
2023-02-12T21:52:02.333Z,100.00
2023-02-12T21:54:31.307Z,100.00
2023-02-12T21:56:59.540Z,100.00
2023-02-12T21:59:30.694Z,100.00
2023-02-12T22:01:59.320Z,100.00
2023-02-12T22:04:27.616Z,100.00
2023-02-12T22:06:55.090Z,100.00
2023-02-12T22:09:23.197Z,100.00
2023-02-12T22:11:52.634Z,100.00
2023-02-12T22:14:21.690Z,100.00
2023-02-12T22:16:49.116Z,100.00
2023-02-12T22:19:16.860Z,100.00
2023-02-12T22:21:44.903Z,100.00
2023-02-12T22:24:15.038Z,100.00
2023-02-12T22:26:43.067Z,100.00
2023-02-12T22:29:14.084Z,100.00
2023-02-12T22:31:42.873Z,100.00
2023-02-12T22:34:13.547Z,100.00
2023-02-12T22:36:41.754Z,100.00
2023-02-12T22:39:11.511Z,100.00
2023-02-12T22:41:38.986Z,100.00
2023-02-12T22:44:06.632Z,100.00
2023-02-12T22:46:35.406Z,100.00
2023-02-12T22:49:03.196Z,100.00
2023-02-12T22:51:32.231Z,100.00
2023-02-12T22:54:00.660Z,100.00
2023-02-12T22:56:28.216Z,100.00
2023-02-12T22:58:58.017Z,100.00
2023-02-12T23:01:25.806Z,100.00
2023-02-12T23:03:53.971Z,100.00
2023-02-12T23:06:27.172Z,100.00
2023-02-12T23:08:58.415Z,100.00
2023-02-12T23:11:28.340Z,100.00
2023-02-12T23:13:57.005Z,100.00
2023-02-12T23:16:24.832Z,100.00
2023-02-12T23:18:57.134Z,100.00
2023-02-12T23:21:26.301Z,100.00
2023-02-12T23:23:54.582Z,100.00
2023-02-12T23:26:22.152Z,100.00
2023-02-12T23:28:49.809Z,100.00
2023-02-12T23:31:17.521Z,100.00
2023-02-12T23:33:45.085Z,100.00
2023-02-12T23:36:12.434Z,100.00
2023-02-12T23:38:40.285Z,100.00
2023-02-12T23:41:07.600Z,100.00
2023-02-12T23:43:35.250Z,100.00
2023-02-12T23:46:02.699Z,100.00
2023-02-12T23:48:30.744Z,100.00
2023-02-12T23:50:58.317Z,100.00
2023-02-12T23:53:26.270Z,100.00
2023-02-12T23:55:53.662Z,100.00
2023-02-12T23:58:21.308Z,100.00
